createdAt,value
2022-09-16T00:00:51.206Z,80.30
2022-09-16T00:03:18.448Z,80.17
2022-09-16T00:05:49.037Z,80.39
2022-09-16T00:08:16.691Z,80.83
2022-09-16T00:10:44.012Z,80.83
2022-09-16T00:13:12.932Z,80.86
2022-09-16T00:15:44.952Z,81.07
2022-09-16T00:18:12.111Z,81.38
2022-09-16T00:20:45.818Z,81.31
2022-09-16T00:23:12.700Z,81.24
2022-09-16T00:25:39.512Z,81.32
2022-09-16T00:28:06.371Z,81.53
2022-09-16T00:30:33.404Z,81.66
2022-09-16T00:33:00.176Z,81.58
2022-09-16T00:35:27.101Z,81.73
2022-09-16T00:37:53.866Z,81.89
2022-09-16T00:40:20.935Z,82.01
2022-09-16T00:42:47.819Z,82.04
2022-09-16T00:45:20.113Z,81.74
2022-09-16T00:48:05.770Z,81.88
2022-09-16T00:50:38.838Z,81.65
2022-09-16T00:53:13.494Z,81.84
2022-09-16T00:55:40.618Z,81.66
2022-09-16T00:58:42.525Z,81.63
2022-09-16T01:01:09.374Z,81.73
2022-09-16T01:03:45.929Z,82.43
2022-09-16T01:06:14.163Z,82.42
2022-09-16T01:08:43.143Z,81.37
2022-09-16T01:11:09.947Z,81.43
2022-09-16T01:13:37.914Z,81.85
2022-09-16T01:16:30.292Z,82.04
2022-09-16T01:19:26.832Z,80.82
2022-09-16T01:22:25.553Z,80.84
2022-09-16T01:25:34.599Z,81.18
2022-09-16T01:28:23.304Z,81.11
2022-09-16T01:31:38.711Z,81.16
2022-09-16T01:34:11.409Z,82.08
2022-09-16T01:36:55.087Z,81.84
2022-09-16T01:39:31.145Z,81.48
2022-09-16T01:42:39.608Z,81.56
2022-09-16T01:45:19.639Z,81.62
2022-09-16T01:48:17.308Z,81.55
2022-09-16T01:50:55.495Z,81.76
2022-09-16T01:53:34.691Z,81.11
2022-09-16T01:56:13.932Z,81.45
2022-09-16T01:59:05.625Z,80.97
2022-09-16T02:01:42.596Z,81.01
2022-09-16T02:04:17.047Z,80.77
2022-09-16T02:06:46.456Z,80.77
2022-09-16T02:09:34.855Z,80.66
2022-09-16T02:12:07.298Z,80.52
2022-09-16T02:14:40.410Z,81.03
2022-09-16T02:17:15.323Z,80.62
2022-09-16T02:19:48.930Z,80.76
2022-09-16T02:22:28.527Z,81.13
2022-09-16T02:24:55.710Z,81.23
2022-09-16T02:27:23.480Z,81.12
2022-09-16T02:29:59.430Z,80.86
2022-09-16T02:32:28.823Z,80.65
2022-09-16T02:34:56.850Z,80.52
2022-09-16T02:37:50.831Z,80.77
2022-09-16T02:40:25.644Z,81.39
2022-09-16T02:42:53.215Z,81.21
2022-09-16T02:45:27.975Z,80.69
2022-09-16T02:48:07.070Z,80.46
2022-09-16T02:50:54.903Z,80.68
2022-09-16T02:53:43.307Z,80.29
2022-09-16T02:56:29.659Z,80.41
2022-09-16T02:58:56.694Z,80.93
2022-09-16T03:01:24.540Z,80.93
2022-09-16T03:03:55.150Z,81.17
2022-09-16T03:06:27.432Z,80.80
2022-09-16T03:08:59.153Z,80.94
2022-09-16T03:11:33.252Z,81.47
2022-09-16T03:14:51.110Z,80.82
2022-09-16T03:17:29.691Z,80.80
2022-09-16T03:20:08.554Z,80.71
2022-09-16T03:22:49.228Z,80.81
2022-09-16T03:25:59.397Z,80.44
2022-09-16T03:28:35.751Z,80.49
2022-09-16T03:31:18.342Z,80.23
2022-09-16T03:33:52.040Z,80.60
2022-09-16T03:36:25.230Z,82.14
2022-09-16T03:38:54.197Z,83.05
2022-09-16T03:41:21.942Z,82.83
2022-09-16T03:44:00.272Z,83.45
2022-09-16T03:46:29.966Z,83.81
2022-09-16T03:48:57.413Z,83.60
2022-09-16T03:51:25.838Z,83.19
2022-09-16T03:53:53.792Z,81.95
2022-09-16T03:56:22.727Z,81.58
2022-09-16T03:58:49.699Z,82.77
2022-09-16T04:01:16.610Z,83.04
2022-09-16T04:03:43.455Z,83.35
2022-09-16T04:06:10.258Z,83.46
2022-09-16T04:08:37.424Z,83.63
2022-09-16T04:11:06.143Z,83.27
2022-09-16T04:13:35.135Z,81.83
2022-09-16T04:16:03.612Z,81.40
2022-09-16T04:18:34.758Z,80.32
2022-09-16T04:21:04.744Z,80.77
2022-09-16T04:23:31.533Z,80.46
2022-09-16T04:26:00.952Z,80.49
2022-09-16T04:28:30.839Z,80.61
2022-09-16T04:31:05.730Z,81.64
2022-09-16T04:33:34.778Z,80.78
2022-09-16T04:36:15.330Z,81.28
2022-09-16T04:38:44.845Z,80.94
2022-09-16T04:41:21.620Z,82.56
2022-09-16T04:43:53.770Z,83.07
2022-09-16T04:46:20.700Z,82.56
2022-09-16T04:48:51.762Z,82.94
2022-09-16T04:51:20.324Z,83.28
2022-09-16T04:53:47.523Z,82.74
2022-09-16T04:56:21.374Z,81.99
2022-09-16T04:58:53.676Z,81.95
2022-09-16T05:01:25.117Z,81.64
2022-09-16T05:03:54.913Z,81.99
2022-09-16T05:06:27.662Z,81.93
2022-09-16T05:08:56.246Z,81.53
2022-09-16T05:11:26.351Z,81.79
2022-09-16T05:13:53.782Z,82.25
2022-09-16T05:16:24.616Z,83.04
2022-09-16T05:18:56.207Z,83.38
2022-09-16T05:21:26.174Z,83.02
2022-09-16T05:23:53.783Z,82.91
2022-09-16T05:26:25.991Z,82.98
2022-09-16T05:28:53.801Z,82.82
2022-09-16T05:31:27.738Z,82.61
2022-09-16T05:34:16.123Z,82.59
2022-09-16T05:36:44.081Z,82.25
2022-09-16T05:39:25.106Z,82.64
2022-09-16T05:42:00.135Z,82.50
2022-09-16T05:44:28.157Z,82.32
2022-09-16T05:46:55.479Z,82.15
2022-09-16T05:49:23.809Z,82.13
2022-09-16T05:51:51.575Z,82.03
2022-09-16T05:54:19.312Z,81.99
2022-09-16T05:56:47.478Z,81.74
2022-09-16T05:59:15.854Z,81.96
2022-09-16T06:01:42.740Z,81.73
2022-09-16T06:04:13.647Z,82.21
2022-09-16T06:06:43.075Z,81.51
2022-09-16T06:09:20.366Z,81.70
2022-09-16T06:11:50.106Z,81.52
2022-09-16T06:14:18.480Z,80.94
2022-09-16T06:16:45.759Z,80.67
2022-09-16T06:19:17.094Z,80.23
2022-09-16T06:21:45.247Z,80.07
2022-09-16T06:24:14.506Z,79.69
2022-09-16T06:26:44.002Z,79.36
2022-09-16T06:29:11.507Z,79.30
2022-09-16T06:31:39.039Z,79.43
2022-09-16T06:34:07.527Z,78.64
2022-09-16T06:36:41.522Z,78.68
2022-09-16T06:39:15.802Z,78.06
2022-09-16T06:41:42.918Z,78.54
2022-09-16T06:44:09.833Z,78.25
2022-09-16T06:46:37.081Z,78.34
2022-09-16T06:49:06.170Z,78.22
2022-09-16T06:51:36.010Z,77.84
2022-09-16T06:54:06.426Z,76.42
2022-09-16T06:56:36.139Z,77.19
2022-09-16T06:59:03.517Z,76.45
2022-09-16T07:01:31.783Z,76.32
2022-09-16T07:04:02.826Z,75.46
2022-09-16T07:06:58.228Z,75.20
2022-09-16T07:09:17.846Z,75.71
2022-09-16T07:11:44.727Z,75.58
2022-09-16T07:14:11.567Z,75.94
2022-09-16T07:16:38.376Z,75.57
2022-09-16T07:19:05.887Z,76.28
2022-09-16T07:21:32.726Z,75.55
2022-09-16T07:24:01.683Z,75.42
2022-09-16T07:26:35.269Z,75.03
2022-09-16T07:29:04.850Z,76.32
2022-09-16T07:31:34.903Z,75.61
2022-09-16T07:34:04.630Z,75.84
2022-09-16T07:36:45.147Z,75.48
2022-09-16T07:39:14.569Z,75.71
2022-09-16T07:41:44.563Z,75.66
2022-09-16T07:44:17.234Z,75.77
2022-09-16T07:46:44.081Z,75.39
2022-09-16T07:49:14.227Z,75.66
2022-09-16T07:51:41.445Z,73.67
2022-09-16T07:54:12.670Z,74.58
2022-09-16T07:56:41.218Z,74.63
2022-09-16T07:59:17.709Z,73.32
2022-09-16T08:01:46.815Z,74.20
2022-09-16T08:04:13.715Z,74.26
2022-09-16T08:06:41.013Z,73.48
2022-09-16T08:09:37.240Z,71.83
2022-09-16T08:11:54.709Z,72.02
2022-09-16T08:14:21.495Z,71.99
2022-09-16T08:16:51.244Z,71.11
2022-09-16T08:19:19.336Z,70.98
2022-09-16T08:21:46.295Z,69.65
2022-09-16T08:24:13.048Z,69.71
2022-09-16T08:26:40.332Z,70.20
2022-09-16T08:29:09.784Z,70.38
2022-09-16T08:31:38.170Z,70.47
2022-09-16T08:34:05.962Z,68.12
2022-09-16T08:36:33.741Z,67.26
2022-09-16T08:39:01.368Z,67.06
2022-09-16T08:41:46.844Z,66.06
2022-09-16T08:44:52.347Z,65.05
2022-09-16T08:47:32.041Z,65.70
2022-09-16T08:50:04.051Z,64.74
2022-09-16T08:52:35.427Z,65.35
2022-09-16T08:55:10.774Z,66.07
2022-09-16T08:57:52.861Z,64.03
2022-09-16T09:00:20.495Z,63.82
2022-09-16T09:02:58.790Z,64.20
2022-09-16T09:06:11.701Z,64.58
2022-09-16T09:09:10.219Z,65.23
2022-09-16T09:11:57.922Z,65.96
2022-09-16T09:15:16.795Z,66.41
2022-09-16T09:17:57.710Z,66.92
2022-09-16T09:20:47.948Z,67.85
2022-09-16T09:23:44.025Z,68.39
2022-09-16T09:26:22.859Z,68.46
2022-09-16T09:28:57.180Z,68.99
2022-09-16T09:31:32.939Z,67.66
2022-09-16T09:34:31.557Z,68.59
2022-09-16T09:37:54.746Z,68.71
2022-09-16T09:40:46.276Z,69.12
2022-09-16T09:43:22.104Z,69.88
2022-09-16T09:46:28.931Z,68.35
2022-09-16T09:49:12.161Z,68.43
2022-09-16T09:51:58.596Z,67.66
2022-09-16T09:54:35.455Z,67.67
2022-09-16T09:57:32.981Z,68.01
2022-09-16T10:00:14.286Z,67.79
2022-09-16T10:02:48.853Z,68.13
2022-09-16T10:05:28.676Z,68.44
2022-09-16T10:08:51.286Z,68.60
2022-09-16T10:11:23.251Z,68.87
2022-09-16T10:13:53.878Z,70.35
2022-09-16T10:16:25.947Z,69.70
2022-09-16T10:19:17.063Z,69.61
2022-09-16T10:21:53.172Z,70.55
2022-09-16T10:24:33.945Z,70.33
2022-09-16T10:27:16.923Z,70.25
2022-09-16T10:29:43.703Z,70.57
2022-09-16T10:32:17.894Z,70.67
2022-09-16T10:34:46.606Z,69.90
2022-09-16T10:37:13.446Z,71.26
2022-09-16T10:39:51.795Z,69.16
2022-09-16T10:42:28.230Z,68.76
2022-09-16T10:45:14.047Z,69.61
2022-09-16T10:47:41.200Z,67.27
2022-09-16T10:50:08.628Z,67.87
2022-09-16T10:52:47.434Z,66.78
2022-09-16T10:55:19.832Z,66.21
2022-09-16T10:57:47.411Z,66.26
2022-09-16T11:00:22.771Z,66.80
2022-09-16T11:03:50.006Z,66.68
2022-09-16T11:06:54.495Z,66.07
2022-09-16T11:10:11.523Z,67.39
2022-09-16T11:12:50.473Z,67.84
2022-09-16T11:16:14.351Z,69.31
2022-09-16T11:18:58.604Z,70.22
2022-09-16T11:21:55.814Z,70.10
2022-09-16T11:24:34.392Z,70.17
2022-09-16T11:27:47.136Z,70.60
2022-09-16T11:30:18.567Z,71.45
2022-09-16T11:33:34.132Z,72.07
2022-09-16T11:36:56.778Z,72.87
2022-09-16T11:39:41.412Z,72.54
2022-09-16T11:42:28.493Z,72.88
2022-09-16T11:45:29.930Z,72.53
2022-09-16T11:48:37.605Z,72.81
2022-09-16T11:51:07.530Z,73.43
2022-09-16T11:53:46.646Z,72.92
2022-09-16T11:56:36.479Z,73.38
2022-09-16T11:59:33.363Z,74.01
2022-09-16T12:02:51.886Z,72.84
2022-09-16T12:05:40.869Z,73.34
2022-09-16T12:08:23.528Z,73.43
2022-09-16T12:10:56.930Z,74.09
2022-09-16T12:13:27.639Z,74.19
2022-09-16T12:16:04.071Z,74.93
2022-09-16T12:18:37.630Z,74.77
2022-09-16T12:21:47.074Z,74.09
2022-09-16T12:24:31.965Z,74.47
2022-09-16T12:27:55.123Z,74.22
2022-09-16T12:30:27.711Z,74.26
2022-09-16T12:33:14.730Z,74.42
2022-09-16T12:36:06.744Z,74.11
2022-09-16T12:38:33.906Z,74.74
2022-09-16T12:41:37.842Z,74.33
2022-09-16T12:44:33.897Z,74.15
2022-09-16T12:47:29.364Z,73.95
2022-09-16T12:50:24.046Z,73.40
2022-09-16T12:53:31.440Z,72.73
2022-09-16T12:56:28.901Z,70.04
2022-09-16T12:59:32.533Z,70.45
2022-09-16T13:02:33.698Z,70.34
2022-09-16T13:05:34.168Z,69.74
2022-09-16T13:08:16.258Z,70.45
2022-09-16T13:11:28.036Z,69.60
2022-09-16T13:13:42.577Z,68.25
2022-09-16T13:16:10.209Z,68.46
2022-09-16T13:18:50.327Z,66.17
2022-09-16T13:21:28.468Z,66.97
2022-09-16T13:24:11.167Z,66.90
2022-09-16T13:26:43.998Z,66.45
2022-09-16T13:29:37.559Z,66.00
2022-09-16T13:32:04.939Z,65.30
2022-09-16T13:34:31.980Z,62.29
2022-09-16T13:36:58.795Z,62.04
2022-09-16T13:39:34.634Z,63.05
2022-09-16T13:42:21.396Z,63.62
2022-09-16T13:44:48.191Z,65.61
2022-09-16T13:47:30.731Z,66.18
2022-09-16T13:50:14.460Z,66.69
2022-09-16T13:52:42.555Z,67.07
2022-09-16T13:55:23.948Z,67.43
2022-09-16T13:58:19.055Z,66.95
2022-09-16T14:01:56.159Z,68.18
2022-09-16T14:04:45.930Z,67.35
2022-09-16T14:07:55.586Z,64.29
2022-09-16T14:11:01.514Z,66.25
2022-09-16T14:13:44.462Z,66.50
2022-09-16T14:16:30.843Z,66.97
2022-09-16T14:19:27.854Z,67.09
2022-09-16T14:22:05.839Z,67.76
2022-09-16T14:24:41.355Z,67.25
2022-09-16T14:27:34.707Z,66.74
2022-09-16T14:30:07.314Z,68.02
2022-09-16T14:32:36.922Z,67.56
2022-09-16T14:35:16.608Z,67.82
2022-09-16T14:37:47.500Z,67.84
2022-09-16T14:40:18.881Z,67.71
2022-09-16T14:43:16.834Z,68.14
2022-09-16T14:45:49.798Z,67.20
2022-09-16T14:48:18.583Z,67.21
2022-09-16T14:50:49.515Z,66.84
2022-09-16T14:53:35.815Z,68.45
2022-09-16T14:56:05.040Z,68.60
2022-09-16T14:58:33.649Z,68.83
2022-09-16T15:01:19.411Z,69.57
2022-09-16T15:04:16.561Z,69.47
2022-09-16T15:06:52.156Z,69.66
2022-09-16T15:09:26.051Z,69.78
2022-09-16T15:11:57.910Z,68.99
2022-09-16T15:14:26.731Z,70.97
2022-09-16T15:17:02.442Z,69.96
2022-09-16T15:19:36.025Z,70.30
2022-09-16T15:22:04.118Z,70.29
2022-09-16T15:24:34.043Z,70.89
2022-09-16T15:27:02.196Z,71.55
2022-09-16T15:29:33.858Z,71.42
2022-09-16T15:32:19.368Z,71.86
2022-09-16T15:34:46.547Z,72.74
2022-09-16T15:37:34.432Z,73.18
2022-09-16T15:40:25.483Z,72.69
2022-09-16T15:43:21.754Z,73.35
2022-09-16T15:46:04.224Z,72.69
2022-09-16T15:48:59.518Z,72.79
2022-09-16T15:51:33.139Z,73.81
2022-09-16T15:54:32.354Z,73.22
2022-09-16T15:57:09.576Z,73.04
2022-09-16T15:59:55.050Z,72.50
2022-09-16T16:02:45.269Z,72.47
2022-09-16T16:05:25.118Z,73.27
2022-09-16T16:07:56.073Z,72.99
2022-09-16T16:10:27.507Z,72.59
2022-09-16T16:12:55.441Z,72.50
2022-09-16T16:15:31.576Z,72.35
2022-09-16T16:18:02.718Z,71.82
2022-09-16T16:20:33.027Z,71.79
2022-09-16T16:23:00.779Z,71.51
2022-09-16T16:25:27.935Z,72.15
2022-09-16T16:27:54.694Z,72.29
2022-09-16T16:30:21.523Z,71.95
2022-09-16T16:32:48.846Z,72.12
2022-09-16T16:35:15.671Z,72.97
2022-09-16T16:37:47.086Z,74.03
2022-09-16T16:40:15.487Z,74.64
2022-09-16T16:42:43.569Z,73.98
2022-09-16T16:45:13.320Z,75.14
2022-09-16T16:47:40.900Z,74.73
2022-09-16T16:50:08.070Z,74.79
2022-09-16T16:52:34.859Z,74.55
2022-09-16T16:55:01.604Z,74.18
2022-09-16T16:57:29.230Z,74.85
2022-09-16T16:59:56.340Z,74.67
2022-09-16T17:02:23.324Z,74.39
2022-09-16T17:04:50.105Z,74.82
2022-09-16T17:07:32.516Z,74.95
2022-09-16T17:09:59.406Z,74.69
2022-09-16T17:12:26.927Z,74.32
2022-09-16T17:14:53.827Z,74.46
2022-09-16T17:17:20.590Z,74.83
2022-09-16T17:19:47.356Z,74.91
2022-09-16T17:22:14.118Z,75.33
2022-09-16T17:24:40.869Z,75.16
2022-09-16T17:27:07.684Z,75.17
2022-09-16T17:29:34.471Z,75.16
2022-09-16T17:32:02.910Z,75.16
2022-09-16T17:34:30.983Z,75.08
2022-09-16T17:36:58.181Z,75.24
2022-09-16T17:39:24.982Z,75.10
2022-09-16T17:41:51.751Z,75.35
2022-09-16T17:44:19.654Z,75.00
2022-09-16T17:46:47.352Z,74.39
2022-09-16T17:49:23.647Z,74.99
2022-09-16T17:51:51.896Z,74.53
2022-09-16T17:54:19.018Z,74.91
2022-09-16T17:56:46.697Z,74.54
2022-09-16T17:59:16.938Z,74.84
2022-09-16T18:01:44.217Z,74.88
2022-09-16T18:04:11.120Z,75.20
2022-09-16T18:06:46.127Z,75.35
2022-09-16T18:09:14.264Z,75.36
2022-09-16T18:11:41.078Z,76.60
2022-09-16T18:14:11.591Z,75.99
2022-09-16T18:16:38.651Z,76.28
2022-09-16T18:19:05.685Z,75.75
2022-09-16T18:21:33.445Z,75.96
2022-09-16T18:24:03.057Z,75.59
2022-09-16T18:26:31.635Z,75.63
2022-09-16T18:29:16.676Z,75.87
2022-09-16T18:31:46.998Z,76.13
2022-09-16T18:34:15.109Z,75.89
2022-09-16T18:36:42.369Z,75.88
2022-09-16T18:39:14.681Z,76.07
2022-09-16T18:41:43.270Z,76.17
2022-09-16T18:44:20.586Z,76.02
2022-09-16T18:46:47.888Z,76.27
2022-09-16T18:49:17.028Z,76.36
2022-09-16T18:51:51.763Z,76.25
2022-09-16T18:54:31.111Z,76.37
2022-09-16T18:57:00.208Z,75.94
2022-09-16T18:59:30.883Z,75.96
2022-09-16T19:02:00.514Z,75.86
2022-09-16T19:04:30.725Z,76.01
2022-09-16T19:07:05.723Z,76.12
2022-09-16T19:09:32.621Z,75.97
2022-09-16T19:12:00.916Z,75.97
2022-09-16T19:14:28.023Z,76.36
2022-09-16T19:16:54.994Z,76.34
2022-09-16T19:19:22.503Z,76.67
2022-09-16T19:21:49.363Z,76.35
2022-09-16T19:24:22.903Z,76.23
2022-09-16T19:26:53.529Z,76.30
2022-09-16T19:29:21.306Z,76.53
2022-09-16T19:31:54.202Z,76.62
2022-09-16T19:34:22.089Z,76.67
2022-09-16T19:36:49.673Z,77.00
2022-09-16T19:39:16.579Z,77.02
2022-09-16T19:41:43.594Z,77.16
2022-09-16T19:44:14.683Z,77.34
2022-09-16T19:46:42.730Z,77.36
2022-09-16T19:49:16.783Z,77.57
2022-09-16T19:51:44.101Z,77.24
2022-09-16T19:54:11.090Z,77.63
2022-09-16T19:56:37.941Z,77.21
2022-09-16T19:59:04.936Z,77.62
2022-09-16T20:01:34.196Z,77.36
2022-09-16T20:04:03.786Z,77.19
2022-09-16T20:06:41.354Z,77.29
2022-09-16T20:09:12.747Z,77.08
2022-09-16T20:11:44.502Z,77.24
2022-09-16T20:14:20.580Z,77.38
2022-09-16T20:16:49.374Z,77.30
2022-09-16T20:19:18.600Z,77.14
2022-09-16T20:21:45.694Z,77.29
2022-09-16T20:24:19.480Z,77.86
2022-09-16T20:26:53.846Z,77.79
2022-09-16T20:29:21.461Z,77.49
2022-09-16T20:31:50.745Z,77.67
2022-09-16T20:34:17.601Z,77.12
2022-09-16T20:36:45.912Z,77.12
2022-09-16T20:39:13.922Z,77.50
2022-09-16T20:41:41.383Z,77.15
2022-09-16T20:44:12.745Z,76.91
2022-09-16T20:46:39.551Z,77.42
2022-09-16T20:49:10.515Z,77.23
2022-09-16T20:51:37.628Z,77.15
2022-09-16T20:54:08.691Z,77.27
2022-09-16T20:56:39.760Z,76.89
2022-09-16T20:59:12.568Z,77.44
2022-09-16T21:01:41.468Z,77.62
2022-09-16T21:04:16.155Z,77.84
2022-09-16T21:06:43.879Z,77.68
2022-09-16T21:09:14.411Z,78.33
2022-09-16T21:11:44.481Z,77.88
2022-09-16T21:14:15.076Z,78.58
2022-09-16T21:16:43.033Z,78.19
2022-09-16T21:19:12.606Z,76.91
2022-09-16T21:21:44.014Z,76.98
2022-09-16T21:24:11.143Z,76.29
2022-09-16T21:26:40.102Z,76.32
2022-09-16T21:29:11.978Z,76.40
2022-09-16T21:31:41.300Z,76.43
2022-09-16T21:34:14.959Z,76.24
2022-09-16T21:36:44.227Z,76.35
2022-09-16T21:39:12.214Z,76.19
2022-09-16T21:41:39.067Z,76.82
2022-09-16T21:44:05.969Z,76.78
2022-09-16T21:46:42.947Z,76.77
2022-09-16T21:49:25.755Z,77.08
2022-09-16T21:51:55.291Z,76.92
2022-09-16T21:54:22.991Z,76.74
2022-09-16T21:56:51.285Z,76.93
2022-09-16T21:59:19.757Z,76.50
2022-09-16T22:01:47.741Z,76.54
2022-09-16T22:04:21.243Z,76.66
2022-09-16T22:06:49.019Z,76.42
2022-09-16T22:09:16.478Z,76.33
2022-09-16T22:11:43.393Z,76.28
2022-09-16T22:14:11.143Z,76.36
2022-09-16T22:16:39.604Z,76.38
2022-09-16T22:19:11.367Z,76.09
2022-09-16T22:21:43.811Z,76.60
2022-09-16T22:24:11.548Z,76.76
2022-09-16T22:26:39.083Z,76.68
2022-09-16T22:29:06.389Z,76.75
2022-09-16T22:31:36.731Z,77.18
2022-09-16T22:34:04.435Z,77.08
2022-09-16T22:36:34.017Z,77.40
2022-09-16T22:39:12.435Z,77.17
2022-09-16T22:41:39.212Z,77.28
2022-09-16T22:44:06.103Z,77.53
2022-09-16T22:46:44.055Z,77.19
2022-09-16T22:49:11.734Z,77.42
2022-09-16T22:51:39.185Z,77.75
2022-09-16T22:54:07.154Z,77.60
2022-09-16T22:56:34.831Z,77.85
2022-09-16T22:59:04.426Z,77.69
2022-09-16T23:01:40.491Z,78.23
2022-09-16T23:04:09.695Z,77.90
2022-09-16T23:06:38.511Z,78.04
2022-09-16T23:09:07.273Z,78.30
2022-09-16T23:11:35.679Z,78.36
2022-09-16T23:14:04.064Z,77.93
2022-09-16T23:16:36.860Z,78.08
2022-09-16T23:19:08.394Z,78.02
2022-09-16T23:21:36.655Z,78.06
2022-09-16T23:24:05.197Z,78.16
2022-09-16T23:26:37.674Z,78.19
2022-09-16T23:29:08.632Z,77.78
2022-09-16T23:31:40.364Z,78.01
2022-09-16T23:34:12.178Z,78.10
2022-09-16T23:36:39.352Z,78.22
2022-09-16T23:39:08.055Z,78.50
2022-09-16T23:41:35.933Z,78.11
2022-09-16T23:44:03.462Z,77.99
2022-09-16T23:46:31.163Z,78.55
2022-09-16T23:48:58.857Z,78.47
2022-09-16T23:51:28.590Z,78.72
2022-09-16T23:53:57.013Z,78.41
2022-09-16T23:56:24.327Z,78.44
2022-09-16T23:58:51.219Z,77.99
